sensor_id;sensor_type;location;lat;lon;timestamp;pressure;altitude;pressure_sealevel;temperature;humidity
34925;BME280;21130;51.728;8.748;2023-01-24T00:00:15;102587.03;;;0.99;100.00
34925;BME280;21130;51.728;8.748;2023-01-24T00:02:43;102583.44;;;0.98;100.00
34925;BME280;21130;51.728;8.748;2023-01-24T00:05:10;102574.41;;;0.86;100.00
34925;BME280;21130;51.728;8.748;2023-01-24T00:07:36;102585.81;;;0.92;100.00
34925;BME280;21130;51.728;8.748;2023-01-24T00:10:03;102586.69;;;0.92;100.00
34925;BME280;21130;51.728;8.748;2023-01-24T00:12:30;102583.09;;;0.92;100.00
34925;BME280;21130;51.728;8.748;2023-01-24T00:14:58;102589.69;;;0.89;100.00
34925;BME280;21130;51.728;8.748;2023-01-24T00:17:24;102592.88;;;0.94;100.00
34925;BME280;21130;51.728;8.748;2023-01-24T00:19:51;102590.41;;;0.91;100.00
34925;BME280;21130;51.728;8.748;2023-01-24T00:22:18;102583.81;;;0.94;100.00
34925;BME280;21130;51.728;8.748;2023-01-24T00:24:44;102586.41;;;0.95;100.00
34925;BME280;21130;51.728;8.748;2023-01-24T00:27:11;102582.22;;;0.91;100.00
34925;BME280;21130;51.728;8.748;2023-01-24T00:29:37;102588.44;;;0.93;100.00
34925;BME280;21130;51.728;8.748;2023-01-24T00:32:05;102582.06;;;0.93;100.00
34925;BME280;21130;51.728;8.748;2023-01-24T00:34:31;102583.09;;;0.92;100.00
34925;BME280;21130;51.728;8.748;2023-01-24T00:36:58;102576.88;;;0.90;100.00
34925;BME280;21130;51.728;8.748;2023-01-24T00:39:24;102574.03;;;0.91;100.00
34925;BME280;21130;51.728;8.748;2023-01-24T00:41:51;102572.25;;;0.90;100.00
34925;BME280;21130;51.728;8.748;2023-01-24T00:44:17;102578.84;;;0.88;100.00
34925;BME280;21130;51.728;8.748;2023-01-24T00:46:43;102568.94;;;0.86;100.00
34925;BME280;21130;51.728;8.748;2023-01-24T00:49:11;102574.78;;;0.82;100.00
34925;BME280;21130;51.728;8.748;2023-01-24T00:51:37;102572.81;;;0.84;100.00
34925;BME280;21130;51.728;8.748;2023-01-24T00:54:04;102566.78;;;0.90;100.00
34925;BME280;21130;51.728;8.748;2023-01-24T00:56:30;102563.59;;;0.85;100.00
34925;BME280;21130;51.728;8.748;2023-01-24T00:58:57;102559.88;;;0.86;100.00
34925;BME280;21130;51.728;8.748;2023-01-24T01:01:23;102559.88;;;0.86;100.00
34925;BME280;21130;51.728;8.748;2023-01-24T01:03:54;102562.72;;;0.84;100.00
34925;BME280;21130;51.728;8.748;2023-01-24T01:06:22;102573.34;;;0.78;100.00
34925;BME280;21130;51.728;8.748;2023-01-24T01:08:49;102570.59;;;0.78;100.00
34925;BME280;21130;51.728;8.748;2023-01-24T01:11:15;102568.59;;;0.80;100.00
34925;BME280;21130;51.728;8.748;2023-01-24T01:13:42;102574.78;;;0.82;100.00
34925;BME280;21130;51.728;8.748;2023-01-24T01:16:11;102565.59;;;0.83;100.00
34925;BME280;21130;51.728;8.748;2023-01-24T01:18:38;102578.53;;;0.81;100.00
34925;BME280;21130;51.728;8.748;2023-01-24T01:21:06;102582.50;;;0.77;100.00
34925;BME280;21130;51.728;8.748;2023-01-24T01:23:33;102583.47;;;0.87;100.00
34925;BME280;21130;51.728;8.748;2023-01-24T01:26:00;102590.91;;;0.85;100.00
34925;BME280;21130;51.728;8.748;2023-01-24T01:28:27;102577.78;;;0.79;100.00
34925;BME280;21130;51.728;8.748;2023-01-24T01:30:55;102586.84;;;0.79;100.00
34925;BME280;21130;51.728;8.748;2023-01-24T01:33:22;102584.75;;;0.72;100.00
34925;BME280;21130;51.728;8.748;2023-01-24T01:35:49;102583.38;;;0.77;100.00
34925;BME280;21130;51.728;8.748;2023-01-24T01:38:16;102584.00;;;0.81;100.00
34925;BME280;21130;51.728;8.748;2023-01-24T01:40:44;102584.50;;;0.75;100.00
34925;BME280;21130;51.728;8.748;2023-01-24T01:43:13;102597.03;;;0.77;100.00
34925;BME280;21130;51.728;8.748;2023-01-24T01:45:41;102595.44;;;0.75;100.00
34925;BME280;21130;51.728;8.748;2023-01-24T01:48:15;102585.72;;;0.82;100.00
34925;BME280;21130;51.728;8.748;2023-01-24T01:50:44;102587.72;;;0.80;100.00
34925;BME280;21130;51.728;8.748;2023-01-24T01:53:14;102572.44;;;0.77;100.00
34925;BME280;21130;51.728;8.748;2023-01-24T01:55:46;102576.19;;;0.76;100.00
34925;BME280;21130;51.728;8.748;2023-01-24T01:58:15;102581.53;;;0.78;100.00
34925;BME280;21130;51.728;8.748;2023-01-24T02:00:43;102577.56;;;0.71;100.00
34925;BME280;21130;51.728;8.748;2023-01-24T02:03:19;102584.00;;;0.81;100.00
34925;BME280;21130;51.728;8.748;2023-01-24T02:06:27;102586.84;;;0.79;100.00
34925;BME280;21130;51.728;8.748;2023-01-24T02:08:56;102585.59;;;0.83;100.00
34925;BME280;21130;51.728;8.748;2023-01-24T02:11:25;102589.97;;;0.75;100.00
34925;BME280;21130;51.728;8.748;2023-01-24T02:14:08;102588.59;;;0.80;100.00
34925;BME280;21130;51.728;8.748;2023-01-24T02:16:53;102587.47;;;0.83;100.00
34925;BME280;21130;51.728;8.748;2023-01-24T02:22:16;102573.66;;;0.84;100.00
34925;BME280;21130;51.728;8.748;2023-01-24T02:24:54;102565.34;;;0.86;100.00
34925;BME280;21130;51.728;8.748;2023-01-24T02:27:26;102579.41;;;0.81;100.00
34925;BME280;21130;51.728;8.748;2023-01-24T02:29:53;102574.03;;;0.80;100.00
34925;BME280;21130;51.728;8.748;2023-01-24T02:32:20;102578.38;;;0.82;100.00
34925;BME280;21130;51.728;8.748;2023-01-24T02:34:46;102575.53;;;0.84;100.00
34925;BME280;21130;51.728;8.748;2023-01-24T02:37:13;102564.47;;;0.85;100.00
34925;BME280;21130;51.728;8.748;2023-01-24T02:39:45;102578.34;;;0.94;100.00
34925;BME280;21130;51.728;8.748;2023-01-24T02:42:14;102574.88;;;0.92;100.00
34925;BME280;21130;51.728;8.748;2023-01-24T02:44:46;102578.84;;;0.88;100.00
34925;BME280;21130;51.728;8.748;2023-01-24T02:47:14;102576.47;;;0.94;100.00
34925;BME280;21130;51.728;8.748;2023-01-24T02:49:40;102574.03;;;0.91;100.00
34925;BME280;21130;51.728;8.748;2023-01-24T02:52:07;102577.72;;;0.90;100.00
34925;BME280;21130;51.728;8.748;2023-01-24T02:54:52;102580.94;;;0.95;100.00
34925;BME280;21130;51.728;8.748;2023-01-24T02:57:18;102578.75;;;0.89;100.00
34925;BME280;21130;51.728;8.748;2023-01-24T03:00:12;102573.28;;;0.89;100.00
34925;BME280;21130;51.728;8.748;2023-01-24T03:02:39;102576.28;;;0.86;100.00
34925;BME280;21130;51.728;8.748;2023-01-24T03:05:10;102579.47;;;0.91;100.00
34925;BME280;21130;51.728;8.748;2023-01-24T03:07:36;102569.53;;;0.90;100.00
34925;BME280;21130;51.728;8.748;2023-01-24T03:10:10;102568.66;;;0.90;100.00
34925;BME280;21130;51.728;8.748;2023-01-24T03:12:37;102566.78;;;0.90;100.00
34925;BME280;21130;51.728;8.748;2023-01-24T03:15:22;102562.22;;;0.91;100.00
34925;BME280;21130;51.728;8.748;2023-01-24T03:18:06;102559.59;;;0.89;100.00
34925;BME280;21130;51.728;8.748;2023-01-24T03:20:50;102552.81;;;0.83;100.00
34925;BME280;21130;51.728;8.748;2023-01-24T03:23:34;102550.06;;;0.83;100.00
34925;BME280;21130;51.728;8.748;2023-01-24T03:26:18;102551.19;;;0.81;100.00
34925;BME280;21130;51.728;8.748;2023-01-24T03:29:02;102550.41;;;0.90;100.00
34925;BME280;21130;51.728;8.748;2023-01-24T03:31:48;102552.66;;;0.85;100.00
34925;BME280;21130;51.728;8.748;2023-01-24T03:34:32;102552.19;;;0.80;100.00
34925;BME280;21130;51.728;8.748;2023-01-24T03:36:59;102545.84;;;0.79;100.00
34925;BME280;21130;51.728;8.748;2023-01-24T03:39:26;102548.84;;;0.76;100.00
34925;BME280;21130;51.728;8.748;2023-01-24T03:42:10;102539.53;;;0.79;100.00
34925;BME280;21130;51.728;8.748;2023-01-24T03:44:36;102544.59;;;0.83;100.00
34925;BME280;21130;51.728;8.748;2023-01-24T03:47:04;102544.88;;;0.80;100.00
34925;BME280;21130;51.728;8.748;2023-01-24T03:49:31;102542.38;;;0.77;100.00
34925;BME280;21130;51.728;8.748;2023-01-24T03:52:14;102537.16;;;0.85;100.00
34925;BME280;21130;51.728;8.748;2023-01-24T03:54:53;102529.59;;;0.78;100.00
34925;BME280;21130;51.728;8.748;2023-01-24T03:57:20;102534.41;;;0.85;100.00
34925;BME280;21130;51.728;8.748;2023-01-24T03:59:46;102523.72;;;0.82;100.00
34925;BME280;21130;51.728;8.748;2023-01-24T04:02:14;102530.31;;;0.80;100.00
34925;BME280;21130;51.728;8.748;2023-01-24T04:04:41;102536.78;;;0.79;100.00
34925;BME280;21130;51.728;8.748;2023-01-24T04:07:26;102533.78;;;0.82;100.00
34925;BME280;21130;51.728;8.748;2023-01-24T04:09:53;102535.19;;;0.76;100.00
34925;BME280;21130;51.728;8.748;2023-01-24T04:12:20;102542.25;;;0.79;100.00
34925;BME280;21130;51.728;8.748;2023-01-24T04:14:46;102540.53;;;0.78;100.00
34925;BME280;21130;51.728;8.748;2023-01-24T04:17:12;102539.16;;;0.72;100.00
34925;BME280;21130;51.728;8.748;2023-01-24T04:19:40;102539.06;;;0.74;100.00
34925;BME280;21130;51.728;8.748;2023-01-24T04:22:06;102541.78;;;0.74;100.00
34925;BME280;21130;51.728;8.748;2023-01-24T04:24:33;102546.97;;;0.77;100.00
34925;BME280;21130;51.728;8.748;2023-01-24T04:26:59;102549.72;;;0.77;100.00
34925;BME280;21130;51.728;8.748;2023-01-24T04:29:26;102539.06;;;0.74;100.00
34925;BME280;21130;51.728;8.748;2023-01-24T04:31:52;102533.94;;;0.80;100.00
34925;BME280;21130;51.728;8.748;2023-01-24T04:34:18;102541.78;;;0.74;100.00
34925;BME280;21130;51.728;8.748;2023-01-24T04:36:46;102546.88;;;0.78;100.00
34925;BME280;21130;51.728;8.748;2023-01-24T04:39:13;102547.63;;;0.69;100.00
34925;BME280;21130;51.728;8.748;2023-01-24T04:41:39;102540.78;;;0.75;100.00
34925;BME280;21130;51.728;8.748;2023-01-24T04:44:06;102543.03;;;0.70;100.00
34925;BME280;21130;51.728;8.748;2023-01-24T04:46:32;102545.03;;;0.68;100.00
34925;BME280;21130;51.728;8.748;2023-01-24T04:48:59;102542.91;;;0.71;100.00
34925;BME280;21130;51.728;8.748;2023-01-24T04:51:25;102541.44;;;0.67;100.00
34925;BME280;21130;51.728;8.748;2023-01-24T04:53:53;102553.69;;;0.73;100.00
34925;BME280;21130;51.728;8.748;2023-01-24T04:56:19;102551.22;;;0.70;100.00
34925;BME280;21130;51.728;8.748;2023-01-24T04:58:46;102540.19;;;0.71;100.00
34925;BME280;21130;51.728;8.748;2023-01-24T05:01:12;102549.59;;;0.78;100.00
34925;BME280;21130;51.728;8.748;2023-01-24T05:03:38;102549.97;;;0.74;100.00
34925;BME280;21130;51.728;8.748;2023-01-24T05:06:05;102545.75;;;0.70;100.00
34925;BME280;21130;51.728;8.748;2023-01-24T05:08:31;102545.50;;;0.73;100.00
34925;BME280;21130;51.728;8.748;2023-01-24T05:11:01;102544.78;;;0.71;100.00
34925;BME280;21130;51.728;8.748;2023-01-24T05:13:28;102546.03;;;0.67;100.00
34925;BME280;21130;51.728;8.748;2023-01-24T05:15:54;102545.28;;;0.64;100.00
34925;BME280;21130;51.728;8.748;2023-01-24T05:18:21;102550.63;;;0.66;100.00
34925;BME280;21130;51.728;8.748;2023-01-24T05:20:47;102540.84;;;0.63;100.00
34925;BME280;21130;51.728;8.748;2023-01-24T05:23:13;102537.56;;;0.70;100.00
34925;BME280;21130;51.728;8.748;2023-01-24T05:25:40;102552.75;;;0.62;100.00
34925;BME280;21130;51.728;8.748;2023-01-24T05:28:08;102545.28;;;0.64;100.00
34925;BME280;21130;51.728;8.748;2023-01-24T05:30:34;102545.28;;;0.64;100.00
34925;BME280;21130;51.728;8.748;2023-01-24T05:33:00;102546.03;;;0.67;100.00
34925;BME280;21130;51.728;8.748;2023-01-24T05:35:28;102553.38;;;0.66;100.00
34925;BME280;21130;51.728;8.748;2023-01-24T05:37:55;102554.22;;;0.67;100.00
34925;BME280;21130;51.728;8.748;2023-01-24T05:40:21;102566.28;;;0.64;100.00
34925;BME280;21130;51.728;8.748;2023-01-24T05:42:48;102562.81;;;0.62;100.00
34925;BME280;21130;51.728;8.748;2023-01-24T05:45:15;102579.34;;;0.60;100.00
34925;BME280;21130;51.728;8.748;2023-01-24T05:47:42;102581.44;;;0.68;100.00
34925;BME280;21130;51.728;8.748;2023-01-24T05:50:09;102580.31;;;0.59;100.00
34925;BME280;21130;51.728;8.748;2023-01-24T05:52:36;102584.66;;;0.62;100.00
34925;BME280;21130;51.728;8.748;2023-01-24T05:55:03;102579.59;;;0.57;100.00
34925;BME280;21130;51.728;8.748;2023-01-24T05:57:30;102582.09;;;0.60;100.00
34925;BME280;21130;51.728;8.748;2023-01-24T05:59:57;102583.81;;;0.61;100.00
34925;BME280;21130;51.728;8.748;2023-01-24T06:02:26;102587.28;;;0.63;100.00
34925;BME280;21130;51.728;8.748;2023-01-24T06:04:53;102581.81;;;0.63;100.00
34925;BME280;21130;51.728;8.748;2023-01-24T06:07:19;102578.88;;;0.55;100.00
34925;BME280;21130;51.728;8.748;2023-01-24T06:09:45;102590.03;;;0.52;100.00
34925;BME280;21130;51.728;8.748;2023-01-24T06:12:12;102585.78;;;0.59;100.00
34925;BME280;21130;51.728;8.748;2023-01-24T06:14:38;102581.84;;;0.52;100.00
34925;BME280;21130;51.728;8.748;2023-01-24T06:17:05;102589.91;;;0.54;100.00
34925;BME280;21130;51.728;8.748;2023-01-24T06:19:33;102586.31;;;0.53;100.00
34925;BME280;21130;51.728;8.748;2023-01-24T06:22:04;102600.97;;;0.52;100.00
34925;BME280;21130;51.728;8.748;2023-01-24T06:24:35;102601.84;;;0.53;100.00
34925;BME280;21130;51.728;8.748;2023-01-24T06:27:01;102610.53;;;0.58;100.00
34925;BME280;21130;51.728;8.748;2023-01-24T06:29:28;102617.34;;;0.52;100.00
34925;BME280;21130;51.728;8.748;2023-01-24T06:32:04;102613.00;;;0.50;100.00
34925;BME280;21130;51.728;8.748;2023-01-24T06:34:44;102611.16;;;0.50;100.00
34925;BME280;21130;51.728;8.748;2023-01-24T06:37:22;102606.69;;;0.49;100.00
34925;BME280;21130;51.728;8.748;2023-01-24T06:39:52;102615.63;;;0.51;100.00
34925;BME280;21130;51.728;8.748;2023-01-24T06:42:20;102613.00;;;0.50;100.00
34925;BME280;21130;51.728;8.748;2023-01-24T06:44:47;102616.13;;;0.45;100.00
34925;BME280;21130;51.728;8.748;2023-01-24T06:47:14;102625.94;;;0.48;100.00
34925;BME280;21130;51.728;8.748;2023-01-24T06:49:43;102630.91;;;0.54;100.00
34925;BME280;21130;51.728;8.748;2023-01-24T06:52:11;102632.78;;;0.53;100.00
34925;BME280;21130;51.728;8.748;2023-01-24T06:54:37;102626.28;;;0.54;100.00
34925;BME280;21130;51.728;8.748;2023-01-24T06:57:04;102621.69;;;0.55;100.00
34925;BME280;21130;51.728;8.748;2023-01-24T06:59:30;102626.66;;;0.50;100.00
34925;BME280;21130;51.728;8.748;2023-01-24T07:01:56;102625.69;;;0.51;100.00
34925;BME280;21130;51.728;8.748;2023-01-24T07:04:23;102626.66;;;0.50;100.00
34925;BME280;21130;51.728;8.748;2023-01-24T07:06:51;102635.63;;;0.52;100.00
34925;BME280;21130;51.728;8.748;2023-01-24T07:09:18;102643.56;;;0.55;100.00
34925;BME280;21130;51.728;8.748;2023-01-24T07:11:44;102638.56;;;0.60;100.00
34925;BME280;21130;51.728;8.748;2023-01-24T07:14:13;102635.75;;;0.50;100.00
34925;BME280;21130;51.728;8.748;2023-01-24T07:16:39;102641.34;;;0.49;100.00
34925;BME280;21130;51.728;8.748;2023-01-24T07:19:07;102641.81;;;0.54;100.00
34925;BME280;21130;51.728;8.748;2023-01-24T07:21:39;102645.31;;;0.45;100.00
34925;BME280;21130;51.728;8.748;2023-01-24T07:24:09;102645.78;;;0.50;100.00
34925;BME280;21130;51.728;8.748;2023-01-24T07:26:38;102646.91;;;0.47;100.00
34925;BME280;21130;51.728;8.748;2023-01-24T07:29:05;102648.53;;;0.50;100.00
34925;BME280;21130;51.728;8.748;2023-01-24T07:31:32;102644.56;;;0.42;100.00
34925;BME280;21130;51.728;8.748;2023-01-24T07:33:58;102650.03;;;0.42;100.00
34925;BME280;21130;51.728;8.748;2023-01-24T07:36:25;102652.53;;;0.46;100.00
34925;BME280;21130;51.728;8.748;2023-01-24T07:38:52;102650.50;;;0.48;100.00
34925;BME280;21130;51.728;8.748;2023-01-24T07:41:20;102643.06;;;0.50;100.00
34925;BME280;21130;51.728;8.748;2023-01-24T07:43:47;102651.41;;;0.48;100.00
34925;BME280;21130;51.728;8.748;2023-01-24T07:46:13;102644.94;;;0.49;100.00
34925;BME280;21130;51.728;8.748;2023-01-24T07:48:40;102646.69;;;0.50;100.00
34925;BME280;21130;51.728;8.748;2023-01-24T07:51:06;102653.00;;;0.51;100.00
34925;BME280;21130;51.728;8.748;2023-01-24T07:53:34;102663.78;;;0.52;100.00
34925;BME280;21130;51.728;8.748;2023-01-24T07:56:01;102657.84;;;0.47;100.00
34925;BME280;21130;51.728;8.748;2023-01-24T07:58:29;102661.31;;;0.49;100.00
34925;BME280;21130;51.728;8.748;2023-01-24T08:00:56;102659.44;;;0.50;100.00
34925;BME280;21130;51.728;8.748;2023-01-24T08:03:22;102664.91;;;0.50;100.00
34925;BME280;21130;51.728;8.748;2023-01-24T08:05:49;102662.56;;;0.45;100.00
34925;BME280;21130;51.728;8.748;2023-01-24T08:08:15;102670.91;;;0.43;100.00
34925;BME280;21130;51.728;8.748;2023-01-24T08:10:42;102666.03;;;0.47;100.00
34925;BME280;21130;51.728;8.748;2023-01-24T08:13:08;102679.84;;;0.46;100.00
34925;BME280;21130;51.728;8.748;2023-01-24T08:15:37;102678.97;;;0.56;100.00
34925;BME280;21130;51.728;8.748;2023-01-24T08:18:03;102668.53;;;0.50;100.00
34925;BME280;21130;51.728;8.748;2023-01-24T08:20:30;102677.34;;;0.54;100.00
34925;BME280;21130;51.728;8.748;2023-01-24T08:22:57;102678.94;;;0.45;100.00
34925;BME280;21130;51.728;8.748;2023-01-24T08:25:23;102675.50;;;0.43;100.00
34925;BME280;21130;51.728;8.748;2023-01-24T08:27:50;102685.69;;;0.41;100.00
34925;BME280;21130;51.728;8.748;2023-01-24T08:30:17;102673.75;;;0.42;100.00
34925;BME280;21130;51.728;8.748;2023-01-24T08:32:45;102677.22;;;0.44;100.00
34925;BME280;21130;51.728;8.748;2023-01-24T08:35:11;102678.84;;;0.47;100.00
34925;BME280;21130;51.728;8.748;2023-01-24T08:37:37;102689.28;;;0.53;100.00
34925;BME280;21130;51.728;8.748;2023-01-24T08:40:05;102676.59;;;0.52;100.00
34925;BME280;21130;51.728;8.748;2023-01-24T08:42:35;102679.22;;;0.53;100.00
34925;BME280;21130;51.728;8.748;2023-01-24T08:45:02;102683.41;;;0.57;100.00
34925;BME280;21130;51.728;8.748;2023-01-24T08:47:28;102687.03;;;0.58;100.00
34925;BME280;21130;51.728;8.748;2023-01-24T08:49:56;102684.41;;;0.56;100.00
34925;BME280;21130;51.728;8.748;2023-01-24T08:52:22;102687.66;;;0.61;100.00
34925;BME280;21130;51.728;8.748;2023-01-24T08:54:48;102696.84;;;0.60;100.00
34925;BME280;21130;51.728;8.748;2023-01-24T08:57:15;102693.59;;;0.67;100.00
34925;BME280;21130;51.728;8.748;2023-01-24T08:59:41;102693.59;;;0.67;100.00
34925;BME280;21130;51.728;8.748;2023-01-24T09:02:08;102703.66;;;0.66;100.00
34925;BME280;21130;51.728;8.748;2023-01-24T09:04:35;102700.94;;;0.66;100.00
34925;BME280;21130;51.728;8.748;2023-01-24T09:07:03;102706.78;;;0.61;100.00
34925;BME280;21130;51.728;8.748;2023-01-24T09:09:29;102716.94;;;0.59;100.00
34925;BME280;21130;51.728;8.748;2023-01-24T09:11:56;102710.25;;;0.63;100.00
34925;BME280;21130;51.728;8.748;2023-01-24T09:14:22;102713.84;;;0.64;100.00
34925;BME280;21130;51.728;8.748;2023-01-24T09:16:48;102721.28;;;0.62;100.00
34925;BME280;21130;51.728;8.748;2023-01-24T09:19:15;102717.44;;;0.64;100.00
34925;BME280;21130;51.728;8.748;2023-01-24T09:21:42;102727.75;;;0.72;100.00
34925;BME280;21130;51.728;8.748;2023-01-24T09:24:10;102731.00;;;0.66;100.00
34925;BME280;21130;51.728;8.748;2023-01-24T09:26:36;102716.47;;;0.66;100.00
34925;BME280;21130;51.728;8.748;2023-01-24T09:29:03;102717.94;;;0.70;100.00
34925;BME280;21130;51.728;8.748;2023-01-24T09:31:29;102715.34;;;0.68;100.00
34925;BME280;21130;51.728;8.748;2023-01-24T09:33:56;102715.69;;;0.75;100.00
34925;BME280;21130;51.728;8.748;2023-01-24T09:36:22;102720.66;;;0.81;100.00
34925;BME280;21130;51.728;8.748;2023-01-24T09:38:49;102718.91;;;0.80;100.00
34925;BME280;21130;51.728;8.748;2023-01-24T09:41:24;102722.66;;;0.79;100.00
34925;BME280;21130;51.728;8.748;2023-01-24T09:43:58;102721.91;;;0.77;100.00
34925;BME280;21130;51.728;8.748;2023-01-24T09:46:30;102721.16;;;0.86;100.00
34925;BME280;21130;51.728;8.748;2023-01-24T09:49:03;102722.28;;;0.83;100.00
34925;BME280;21130;51.728;8.748;2023-01-24T09:51:34;102722.03;;;0.86;100.00
34925;BME280;21130;51.728;8.748;2023-01-24T09:54:04;102722.78;;;0.77;100.00
34925;BME280;21130;51.728;8.748;2023-01-24T09:56:35;102737.19;;;0.91;100.00
34925;BME280;21130;51.728;8.748;2023-01-24T09:59:11;102726.38;;;0.89;100.00
34925;BME280;21130;51.728;8.748;2023-01-24T10:01:40;102728.84;;;0.92;100.00
34925;BME280;21130;51.728;8.748;2023-01-24T10:04:18;102722.88;;;0.87;100.00
34925;BME280;21130;51.728;8.748;2023-01-24T10:06:57;102730.97;;;0.89;100.00
34925;BME280;21130;51.728;8.748;2023-01-24T10:09:32;102727.13;;;0.91;100.00
34925;BME280;21130;51.728;8.748;2023-01-24T10:12:13;102730.59;;;0.93;100.00
34925;BME280;21130;51.728;8.748;2023-01-24T10:14:51;102723.63;;;0.89;100.00
34925;BME280;21130;51.728;8.748;2023-01-24T10:17:43;102722.41;;;0.93;100.00
34925;BME280;21130;51.728;8.748;2023-01-24T10:20:26;102727.59;;;0.96;100.00
34925;BME280;21130;51.728;8.748;2023-01-24T10:23:00;102728.84;;;0.92;100.00
34925;BME280;21130;51.728;8.748;2023-01-24T10:25:33;102723.53;;;0.91;100.00
34925;BME280;21130;51.728;8.748;2023-01-24T10:28:03;102726.84;;;0.94;100.00
34925;BME280;21130;51.728;8.748;2023-01-24T10:30:36;102718.44;;;0.86;100.00
34925;BME280;21130;51.728;8.748;2023-01-24T10:33:13;102721.75;;;0.90;100.00
34925;BME280;21130;51.728;8.748;2023-01-24T10:35:51;102722.13;;;0.96;100.00
34925;BME280;21130;51.728;8.748;2023-01-24T10:38:18;102731.84;;;1.00;100.00
34925;BME280;21130;51.728;8.748;2023-01-24T10:40:50;102724.59;;;0.99;100.00
34925;BME280;21130;51.728;8.748;2023-01-24T10:43:19;102722.41;;;0.93;100.00
34925;BME280;21130;51.728;8.748;2023-01-24T10:45:54;102722.34;;;1.04;100.00
34925;BME280;21130;51.728;8.748;2023-01-24T10:48:35;102723.84;;;1.08;100.00
34925;BME280;21130;51.728;8.748;2023-01-24T10:51:11;102718.13;;;1.12;100.00
34925;BME280;21130;51.728;8.748;2023-01-24T10:53:37;102716.38;;;1.11;100.00
34925;BME280;21130;51.728;8.748;2023-01-24T10:56:05;102709.91;;;1.12;100.00
34925;BME280;21130;51.728;8.748;2023-01-24T10:58:35;102705.69;;;1.07;100.00
34925;BME280;21130;51.728;8.748;2023-01-24T11:01:05;102713.66;;;1.11;100.00
34925;BME280;21130;51.728;8.748;2023-01-24T11:03:33;102713.13;;;1.17;100.00
34925;BME280;21130;51.728;8.748;2023-01-24T11:06:04;102700.84;;;1.11;100.00
34925;BME280;21130;51.728;8.748;2023-01-24T11:08:33;102699.72;;;1.02;100.00
34925;BME280;21130;51.728;8.748;2023-01-24T11:11:00;102699.63;;;1.04;100.00
34925;BME280;21130;51.728;8.748;2023-01-24T11:13:32;102699.34;;;1.07;100.00
34925;BME280;21130;51.728;8.748;2023-01-24T11:16:06;102697.97;;;1.13;100.00
34925;BME280;21130;51.728;8.748;2023-01-24T11:18:33;102709.03;;;1.11;100.00
34925;BME280;21130;51.728;8.748;2023-01-24T11:21:09;102699.44;;;1.28;100.00
34925;BME280;21130;51.728;8.748;2023-01-24T11:23:36;102699.28;;;1.29;100.00
34925;BME280;21130;51.728;8.748;2023-01-24T11:26:04;102694.94;;;1.27;100.00
34925;BME280;21130;51.728;8.748;2023-01-24T11:28:33;102697.94;;;1.24;100.00
34925;BME280;21130;51.728;8.748;2023-01-24T11:31:04;102689.72;;;1.24;100.00
34925;BME280;21130;51.728;8.748;2023-01-24T11:33:56;102686.88;;;1.25;100.00
34925;BME280;21130;51.728;8.748;2023-01-24T11:36:36;102686.38;;;1.20;100.00
34925;BME280;21130;51.728;8.748;2023-01-24T11:39:13;102685.97;;;1.25;100.00
34925;BME280;21130;51.728;8.748;2023-01-24T11:41:51;102687.13;;;1.22;100.00
34925;BME280;21130;51.728;8.748;2023-01-24T11:44:59;102681.72;;;1.32;100.00
34925;BME280;21130;51.728;8.748;2023-01-24T11:48:06;102682.75;;;1.31;100.00
34925;BME280;21130;51.728;8.748;2023-01-24T11:50:44;102678.72;;;1.35;100.00
34925;BME280;21130;51.728;8.748;2023-01-24T11:53:26;102674.94;;;1.26;100.00
34925;BME280;21130;51.728;8.748;2023-01-24T11:56:00;102678.31;;;1.19;100.00
34925;BME280;21130;51.728;8.748;2023-01-24T11:58:45;102669.56;;;1.25;100.00
34925;BME280;21130;51.728;8.748;2023-01-24T12:01:21;102667.59;;;1.27;100.00
34925;BME280;21130;51.728;8.748;2023-01-24T12:04:04;102664.06;;;1.36;100.00
34925;BME280;21130;51.728;8.748;2023-01-24T12:06:40;102660.00;;;1.31;100.00
34925;BME280;21130;51.728;8.748;2023-01-24T12:09:16;102656.59;;;1.38;100.00
34925;BME280;21130;51.728;8.748;2023-01-24T12:11:48;102650.25;;;1.38;100.00
34925;BME280;21130;51.728;8.748;2023-01-24T12:17:25;102657.97;;;1.33;100.00
34925;BME280;21130;51.728;8.748;2023-01-24T12:20:15;102651.78;;;1.31;100.00
34925;BME280;21130;51.728;8.748;2023-01-24T12:22:46;102649.38;;;1.37;100.00
34925;BME280;21130;51.728;8.748;2023-01-24T12:25:21;102648.41;;;1.38;100.00
34925;BME280;21130;51.728;8.748;2023-01-24T12:27:49;102639.56;;;1.35;100.00
34925;BME280;21130;51.728;8.748;2023-01-24T12:30:25;102635.09;;;1.34;100.00
34925;BME280;21130;51.728;8.748;2023-01-24T12:32:59;102632.22;;;1.35;100.00
34925;BME280;21130;51.728;8.748;2023-01-24T12:35:31;102635.44;;;1.40;100.00
34925;BME280;21130;51.728;8.748;2023-01-24T12:38:03;102639.38;;;1.47;100.00
34925;BME280;21130;51.728;8.748;2023-01-24T12:40:40;102634.84;;;1.37;100.00
34925;BME280;21130;51.728;8.748;2023-01-24T12:43:15;102625.50;;;1.39;100.00
34925;BME280;21130;51.728;8.748;2023-01-24T12:45:45;102618.97;;;1.31;100.00
34925;BME280;21130;51.728;8.748;2023-01-24T12:48:16;102619.94;;;1.29;100.00
34925;BME280;21130;51.728;8.748;2023-01-24T12:50:52;102617.28;;;1.39;100.00
34925;BME280;21130;51.728;8.748;2023-01-24T12:53:24;102619.81;;;1.31;100.00
34925;BME280;21130;51.728;8.748;2023-01-24T12:55:57;102617.13;;;1.20;100.00
34925;BME280;21130;51.728;8.748;2023-01-24T12:58:29;102623.13;;;1.14;100.00
34925;BME280;21130;51.728;8.748;2023-01-24T13:01:18;102608.72;;;1.12;100.00
34925;BME280;21130;51.728;8.748;2023-01-24T13:03:57;102614.09;;;1.02;100.00
34925;BME280;21130;51.728;8.748;2023-01-24T13:06:37;102608.03;;;0.98;100.00
34925;BME280;21130;51.728;8.748;2023-01-24T13:09:15;102613.41;;;0.89;100.00
34925;BME280;21130;51.728;8.748;2023-01-24T13:11:44;102611.44;;;0.91;100.00